Time;durP1;ratioP1;P1;durP2;ratioP2;P2;SDS_P1;SDS_P2;PMS_P1;PMS_P2;Temp;Humidity;BMP_temperature;BMP_pressure;BME280_temperature;BME280_humidity;BME280_pressure;Samples;Min_cycle;Max_cycle;Signal;HPM_P1;HPM_P2
2022/12/01 00:02:22;;;;;;;52.90;27.80;;;3.30;99.90;;;;;;4912339;29;20304;-71
2022/12/01 00:04:49;;;;;;;48.90;25.60;;;3.30;99.90;;;;;;4912392;29;20247;-71
2022/12/01 00:07:16;;;;;;;53.40;25.83;;;3.30;99.90;;;;;;4912176;29;20351;-71
2022/12/01 00:12:30;;;;;;;48.67;25.13;;;3.30;99.90;;;;;;4912280;29;20235;-70
2022/12/01 00:14:59;;;;;;;53.13;25.87;;;3.30;99.90;;;;;;4911892;29;20665;-70
2022/12/01 00:17:27;;;;;;;56.33;26.53;;;3.30;99.90;;;;;;4911911;29;20236;-70
2022/12/01 00:19:55;;;;;;;49.53;24.73;;;3.30;99.90;;;;;;4911988;29;20211;-70
2022/12/01 00:22:22;;;;;;;50.33;25.57;;;3.20;99.90;;;;;;4911954;29;20219;-70
2022/12/01 00:24:49;;;;;;;50.73;26.17;;;3.20;99.90;;;;;;4911538;29;20213;-72
2022/12/01 00:27:16;;;;;;;52.17;25.80;;;3.20;99.90;;;;;;4911712;29;20213;-72
2022/12/01 00:29:45;;;;;;;51.80;25.67;;;3.10;99.90;;;;;;4911705;29;20312;-72
2022/12/01 00:32:12;;;;;;;50.13;25.13;;;3.10;99.90;;;;;;4911668;29;20232;-72
2022/12/01 00:34:39;;;;;;;50.90;26.63;;;3.10;99.90;;;;;;4912023;29;20287;-72
2022/12/01 00:37:06;;;;;;;50.10;25.87;;;3.10;99.90;;;;;;4911476;29;20645;-71
2022/12/01 00:39:33;;;;;;;54.67;27.80;;;3.10;99.90;;;;;;4911568;29;20258;-71
2022/12/01 00:42:00;;;;;;;54.70;26.20;;;3.10;99.90;;;;;;4911589;29;20765;-71
2022/12/01 00:44:27;;;;;;;52.43;24.93;;;3.10;99.90;;;;;;4911775;29;20295;-70
2022/12/01 00:46:55;;;;;;;51.03;25.50;;;3.10;99.90;;;;;;4911613;29;20295;-70
2022/12/01 00:49:22;;;;;;;50.07;25.53;;;3.10;99.90;;;;;;4911735;29;20248;-71
2022/12/01 00:51:49;;;;;;;52.40;25.70;;;3.10;99.90;;;;;;4911573;29;20235;-71
2022/12/01 00:54:16;;;;;;;51.13;26.00;;;3.10;99.90;;;;;;4911187;29;20247;-71
2022/12/01 00:56:42;;;;;;;45.47;24.47;;;3.10;99.90;;;;;;4911290;29;20244;-71
2022/12/01 00:59:10;;;;;;;51.13;25.43;;;3.10;99.90;;;;;;4911723;29;20665;-71
2022/12/01 01:01:37;;;;;;;49.70;23.80;;;3.10;99.90;;;;;;4912028;29;20204;-71
2022/12/01 01:04:06;;;;;;;50.13;25.80;;;3.10;99.90;;;;;;4892401;29;20312;-71
2022/12/01 01:06:33;;;;;;;52.60;25.20;;;3.10;99.90;;;;;;4892384;29;20255;-71
2022/12/01 01:09:00;;;;;;;44.20;23.37;;;3.10;99.90;;;;;;4905158;29;20328;-71
2022/12/01 01:11:27;;;;;;;50.57;24.00;;;3.10;99.90;;;;;;4911090;29;20268;-71
2022/12/01 01:13:54;;;;;;;49.53;25.10;;;3.10;99.90;;;;;;4910874;29;20240;-71
2022/12/01 01:16:22;;;;;;;48.43;25.27;;;3.20;99.90;;;;;;4911714;29;20625;-71
2022/12/01 01:18:49;;;;;;;50.53;25.50;;;3.20;99.90;;;;;;4910963;29;20236;-71
2022/12/01 01:21:19;;;;;;;51.17;25.57;;;3.10;99.90;;;;;;4910855;29;20228;-71
2022/12/01 01:23:46;;;;;;;49.87;25.73;;;3.20;99.90;;;;;;4911441;29;20588;-72
2022/12/01 01:26:15;;;;;;;51.20;25.50;;;3.10;99.90;;;;;;4911182;29;20323;-71
2022/12/01 01:28:42;;;;;;;43.57;23.17;;;3.10;99.90;;;;;;4911423;29;20296;-72
2022/12/01 01:31:10;;;;;;;51.23;25.43;;;3.10;99.90;;;;;;4911397;29;20312;-71
2022/12/01 01:33:37;;;;;;;53.43;25.27;;;3.20;99.90;;;;;;4911367;29;20299;-71
2022/12/01 01:36:05;;;;;;;45.93;24.10;;;3.10;99.90;;;;;;4911131;29;20236;-71
2022/12/01 01:38:34;;;;;;;45.00;23.90;;;3.10;99.90;;;;;;4911021;29;20323;-70
2022/12/01 01:41:01;;;;;;;43.47;22.97;;;3.10;99.90;;;;;;4910651;29;20213;-71
2022/12/01 01:43:41;;;;;;;47.67;24.90;;;3.10;99.90;;;;;;4910983;29;20259;-71
2022/12/01 01:46:10;;;;;;;47.20;23.67;;;3.10;99.90;;;;;;4911223;29;20657;-70
2022/12/01 01:48:38;;;;;;;44.13;23.27;;;3.10;99.90;;;;;;4911110;29;20303;-70
2022/12/01 01:51:05;;;;;;;45.87;24.27;;;3.10;99.90;;;;;;4911091;29;20213;-70
2022/12/01 01:53:34;;;;;;;43.23;22.93;;;3.10;99.90;;;;;;4910864;29;20309;-71
2022/12/01 01:56:03;;;;;;;41.60;21.90;;;3.00;99.90;;;;;;4910747;29;20216;-71
2022/12/01 01:58:31;;;;;;;44.40;22.20;;;3.00;99.90;;;;;;4910422;29;20323;-71
2022/12/01 02:00:58;;;;;;;44.83;22.93;;;3.00;99.90;;;;;;4900205;29;20692;-71
2022/12/01 02:03:26;;;;;;;40.20;23.03;;;3.10;99.90;;;;;;4908081;29;20300;-73
2022/12/01 02:05:53;;;;;;;42.40;21.73;;;3.00;99.90;;;;;;4910841;29;20215;-72
2022/12/01 02:08:20;;;;;;;41.53;22.70;;;3.00;99.90;;;;;;4910574;29;20339;-72
2022/12/01 02:11:05;;;;;;;40.47;22.33;;;3.00;99.90;;;;;;4908648;29;20303;-72
2022/12/01 02:13:41;;;;;;;39.20;21.37;;;3.00;99.90;;;;;;4910445;29;20296;-72
2022/12/01 02:16:14;;;;;;;44.67;22.60;;;3.10;99.90;;;;;;4910759;29;20648;-72
2022/12/01 02:18:51;;;;;;;45.97;23.80;;;3.00;99.90;;;;;;4910645;29;20315;-70
2022/12/01 02:21:34;;;;;;;44.60;22.27;;;3.00;99.90;;;;;;4911026;29;20283;-70
2022/12/01 02:24:45;;;;;;;44.90;23.80;;;3.00;99.90;;;;;;4904700;29;20287;-70
2022/12/01 02:27:22;;;;;;;38.30;21.70;;;3.00;99.90;;;;;;4895906;29;20253;-70
2022/12/01 02:30:06;;;;;;;46.17;23.93;;;3.00;99.90;;;;;;4907753;29;20219;-70
2022/12/01 02:32:53;;;;;;;44.53;23.50;;;3.00;99.90;;;;;;4914195;29;20205;-70
2022/12/01 02:35:27;;;;;;;48.00;22.63;;;3.00;99.90;;;;;;4914144;29;20209;-71
2022/12/01 02:38:04;;;;;;;48.63;23.37;;;3.00;99.90;;;;;;4914224;29;20235;-72
2022/12/01 02:40:36;;;;;;;46.07;23.47;;;3.00;99.90;;;;;;4913594;29;20289;-71
2022/12/01 02:43:10;;;;;;;40.90;22.30;;;3.00;99.90;;;;;;4913993;29;20229;-71
2022/12/01 02:45:42;;;;;;;48.27;24.27;;;3.00;99.90;;;;;;4913886;29;20205;-71
2022/12/01 02:48:16;;;;;;;41.20;23.00;;;3.00;99.90;;;;;;4913690;29;20634;-70
2022/12/01 02:50:44;;;;;;;45.60;23.60;;;2.90;99.90;;;;;;4913473;29;20675;-71
2022/12/01 02:53:14;;;;;;;45.30;24.67;;;2.90;99.90;;;;;;4913724;29;20237;-70
2022/12/01 02:55:48;;;;;;;42.47;22.93;;;2.90;99.90;;;;;;4913660;29;20281;-71
2022/12/01 02:58:15;;;;;;;47.80;23.90;;;2.90;99.90;;;;;;4913852;29;20221;-71
2022/12/01 03:00:51;;;;;;;46.90;24.03;;;2.90;99.90;;;;;;4913701;29;20223;-70
2022/12/01 03:03:34;;;;;;;46.50;24.90;;;2.90;99.90;;;;;;4913243;29;20575;-70
2022/12/01 03:06:11;;;;;;;45.77;22.60;;;2.90;99.90;;;;;;4913422;29;20311;-70
2022/12/01 03:08:45;;;;;;;46.03;24.40;;;2.90;99.90;;;;;;4913154;29;20711;-70
2022/12/01 03:11:25;;;;;;;45.43;23.60;;;2.90;99.90;;;;;;4913290;29;20730;-71
2022/12/01 03:14:06;;;;;;;49.57;24.27;;;2.90;99.90;;;;;;4913167;29;20203;-70
2022/12/01 03:16:41;;;;;;;50.23;24.53;;;2.90;99.90;;;;;;4913433;29;20675;-71
2022/12/01 03:19:14;;;;;;;46.77;23.80;;;2.90;99.90;;;;;;4913511;29;20319;-73
2022/12/01 03:21:46;;;;;;;50.70;23.80;;;2.90;99.90;;;;;;4913704;29;20209;-72
2022/12/01 03:24:16;;;;;;;47.20;23.20;;;2.90;99.90;;;;;;4913184;29;20207;-73
2022/12/01 03:26:48;;;;;;;45.03;23.13;;;2.90;99.90;;;;;;4911679;29;20315;-71
2022/12/01 03:29:21;;;;;;;49.20;24.70;;;2.90;99.90;;;;;;4911409;29;20295;-72
2022/12/01 03:31:53;;;;;;;51.17;24.27;;;2.90;99.90;;;;;;4911100;29;20517;-76
2022/12/01 03:34:29;;;;;;;45.30;24.23;;;2.90;99.90;;;;;;4910641;29;20312;-72
2022/12/01 03:37:01;;;;;;;49.60;23.87;;;2.90;99.90;;;;;;4892006;29;20247;-72
2022/12/01 03:39:32;;;;;;;43.53;23.30;;;2.90;99.90;;;;;;4908270;29;20299;-72
2022/12/01 03:42:04;;;;;;;48.23;23.80;;;2.90;99.90;;;;;;4910539;29;20296;-71
2022/12/01 03:44:36;;;;;;;44.43;23.33;;;2.80;99.90;;;;;;4894928;29;20226;-72
2022/12/01 03:47:05;;;;;;;52.93;24.83;;;2.90;99.90;;;;;;4894564;29;20212;-72
2022/12/01 03:49:35;;;;;;;45.47;24.07;;;2.90;99.90;;;;;;4910631;29;20244;-73
2022/12/01 03:52:11;;;;;;;49.80;24.13;;;2.80;99.90;;;;;;4910784;29;20240;-73
2022/12/01 03:54:48;;;;;;;46.57;22.57;;;2.90;99.90;;;;;;4910645;29;20236;-70
2022/12/01 03:57:20;;;;;;;51.90;25.10;;;2.80;99.90;;;;;;4909912;29;20583;-73
2022/12/01 03:59:48;;;;;;;50.50;24.37;;;2.90;99.90;;;;;;4911302;29;20715;-74
2022/12/01 04:02:16;;;;;;;56.63;26.10;;;2.90;99.90;;;;;;4911728;29;20295;-73
2022/12/01 04:04:44;;;;;;;47.27;24.07;;;2.90;99.90;;;;;;4912032;29;20327;-73
2022/12/01 04:07:12;;;;;;;48.77;24.80;;;2.90;99.90;;;;;;4912237;29;20352;-72
2022/12/01 04:09:40;;;;;;;53.53;25.13;;;2.90;99.90;;;;;;4912422;29;20209;-73
2022/12/01 04:14:53;;;;;;;49.77;25.00;;;2.90;99.90;;;;;;4912147;29;20216;-74
2022/12/01 04:17:20;;;;;;;48.33;24.10;;;2.90;99.90;;;;;;4912242;29;20255;-73
2022/12/01 04:19:48;;;;;;;47.13;24.23;;;2.90;99.90;;;;;;4911885;29;20323;-73
2022/12/01 04:22:15;;;;;;;51.47;24.87;;;2.90;99.90;;;;;;4912025;29;20607;-73
2022/12/01 04:24:42;;;;;;;52.37;25.30;;;2.90;99.90;;;;;;4912057;29;20209;-73
2022/12/01 04:27:09;;;;;;;49.37;23.90;;;2.90;99.90;;;;;;4912396;29;20295;-73
2022/12/01 04:29:36;;;;;;;53.37;25.63;;;2.90;99.90;;;;;;4911399;29;20682;-72
2022/12/01 04:32:03;;;;;;;54.03;25.67;;;2.80;99.90;;;;;;4912043;29;20577;-72
2022/12/01 04:34:30;;;;;;;50.33;25.83;;;2.90;99.90;;;;;;4911724;29;20638;-73
2022/12/01 04:36:58;;;;;;;50.50;25.23;;;2.80;99.90;;;;;;4911912;29;20340;-73
2022/12/01 04:39:27;;;;;;;47.57;25.83;;;2.90;99.90;;;;;;4911585;29;20332;-73
2022/12/01 04:41:54;;;;;;;46.37;24.70;;;2.80;99.90;;;;;;4911774;29;20302;-72
2022/12/01 04:44:21;;;;;;;53.43;25.93;;;2.80;99.90;;;;;;4911706;29;20292;-72
2022/12/01 04:46:48;;;;;;;48.90;24.97;;;2.80;99.90;;;;;;4911132;29;20222;-73
2022/12/01 04:49:15;;;;;;;51.97;25.67;;;2.80;99.90;;;;;;4911723;29;20276;-73
2022/12/01 04:51:42;;;;;;;56.10;25.60;;;2.70;99.90;;;;;;4911622;29;20770;-73
2022/12/01 04:54:11;;;;;;;54.93;25.43;;;2.70;99.90;;;;;;4911743;29;20240;-73
2022/12/01 04:56:38;;;;;;;54.73;26.50;;;2.70;99.90;;;;;;4911820;29;20317;-72
2022/12/01 04:59:04;;;;;;;56.20;26.43;;;2.80;99.90;;;;;;4911396;29;20228;-72
2022/12/01 05:01:31;;;;;;;55.77;27.47;;;2.80;99.90;;;;;;4911751;29;20651;-73
2022/12/01 05:03:58;;;;;;;52.90;26.33;;;2.80;99.90;;;;;;4911662;29;20247;-72
2022/12/01 05:06:27;;;;;;;55.87;26.73;;;2.80;99.90;;;;;;4911813;29;20291;-73
2022/12/01 05:08:56;;;;;;;58.63;26.63;;;2.80;99.90;;;;;;4910965;29;20311;-72
2022/12/01 05:11:25;;;;;;;55.73;26.27;;;2.80;99.90;;;;;;4911137;29;20291;-73
2022/12/01 05:13:52;;;;;;;60.57;27.67;;;2.80;99.90;;;;;;4911282;29;20280;-72
2022/12/01 05:16:21;;;;;;;52.27;26.80;;;2.80;99.90;;;;;;4911328;29;20296;-72
2022/12/01 05:18:49;;;;;;;54.23;26.67;;;2.80;99.90;;;;;;4911223;29;20323;-73
2022/12/01 05:21:16;;;;;;;56.30;27.70;;;2.70;99.90;;;;;;4911114;29;20205;-72
2022/12/01 05:23:44;;;;;;;60.77;28.77;;;2.70;99.90;;;;;;4900598;29;20288;-73
2022/12/01 05:26:11;;;;;;;56.57;26.50;;;2.70;99.90;;;;;;4892336;29;20305;-73
2022/12/01 05:28:39;;;;;;;50.27;26.50;;;2.70;99.90;;;;;;4892683;29;20302;-72
2022/12/01 05:31:06;;;;;;;55.53;27.67;;;2.70;99.90;;;;;;4892426;29;20210;-72
2022/12/01 05:33:33;;;;;;;53.87;27.33;;;2.70;99.90;;;;;;4892747;29;20332;-72
2022/12/01 05:36:00;;;;;;;58.13;27.67;;;2.70;99.90;;;;;;4892328;29;20265;-73
2022/12/01 05:38:27;;;;;;;55.33;26.77;;;2.70;99.90;;;;;;4900919;29;20225;-73
2022/12/01 05:40:55;;;;;;;58.70;26.30;;;2.70;99.90;;;;;;4910699;29;20224;-72
2022/12/01 05:43:23;;;;;;;58.17;28.30;;;2.70;99.90;;;;;;4911021;29;20312;-72
2022/12/01 05:45:51;;;;;;;58.57;28.53;;;2.70;99.90;;;;;;4911141;29;20383;-72
2022/12/01 05:48:18;;;;;;;56.77;27.27;;;2.70;99.90;;;;;;4911328;29;20236;-73
2022/12/01 05:50:45;;;;;;;56.47;28.07;;;2.70;99.90;;;;;;4911108;29;20213;-73
2022/12/01 05:53:13;;;;;;;54.73;26.50;;;2.70;99.90;;;;;;4911231;29;20303;-74
2022/12/01 05:55:40;;;;;;;54.80;25.73;;;2.60;99.90;;;;;;4908123;29;20210;-73
2022/12/01 05:58:07;;;;;;;49.33;26.10;;;2.60;99.90;;;;;;4914167;29;20722;-73
2022/12/01 06:00:34;;;;;;;52.43;26.83;;;2.60;99.90;;;;;;4914664;29;20232;-72
2022/12/01 06:03:03;;;;;;;49.07;25.73;;;2.60;99.90;;;;;;4914779;29;20322;-73
2022/12/01 06:05:29;;;;;;;56.90;26.63;;;2.60;99.90;;;;;;4914146;29;20311;-72
2022/12/01 06:07:57;;;;;;;48.07;25.50;;;2.60;99.90;;;;;;4913928;29;20245;-73
2022/12/01 06:10:23;;;;;;;51.33;26.00;;;2.60;99.90;;;;;;4914035;29;20311;-73
2022/12/01 06:12:50;;;;;;;49.37;26.23;;;2.50;99.90;;;;;;4914522;29;20217;-72
2022/12/01 06:15:17;;;;;;;50.27;25.70;;;2.50;99.90;;;;;;4914585;29;20319;-73
2022/12/01 06:17:44;;;;;;;52.20;25.03;;;2.50;99.90;;;;;;4914471;29;20737;-73
2022/12/01 06:20:13;;;;;;;47.57;26.17;;;2.50;99.90;;;;;;4914398;29;20244;-74
2022/12/01 06:22:40;;;;;;;52.50;26.70;;;2.50;99.90;;;;;;4914537;29;20219;-72
2022/12/01 06:25:08;;;;;;;52.20;26.57;;;2.50;99.90;;;;;;4914242;29;20596;-73
2022/12/01 06:27:35;;;;;;;49.23;25.23;;;2.50;99.90;;;;;;4914078;29;20725;-72
2022/12/01 06:30:03;;;;;;;48.67;25.17;;;2.60;99.90;;;;;;4913989;29;20723;-71
2022/12/01 06:32:29;;;;;;;52.73;26.77;;;2.50;99.90;;;;;;4914227;29;20287;-72
2022/12/01 06:34:56;;;;;;;46.97;26.53;;;2.60;99.90;;;;;;4914170;29;20220;-72
2022/12/01 06:37:25;;;;;;;49.27;26.07;;;2.60;99.90;;;;;;4913911;29;20224;-72
2022/12/01 06:39:51;;;;;;;50.83;26.33;;;2.60;99.90;;;;;;4913498;29;20708;-72
2022/12/01 06:42:18;;;;;;;50.93;27.03;;;2.60;99.90;;;;;;4913818;29;20743;-72
2022/12/01 06:44:46;;;;;;;48.77;26.60;;;2.60;99.90;;;;;;4913748;29;20255;-73
2022/12/01 06:47:14;;;;;;;51.90;27.93;;;2.50;99.90;;;;;;4913840;29;20214;-72
2022/12/01 06:49:41;;;;;;;51.00;27.13;;;2.60;99.90;;;;;;4913962;29;20725;-72
2022/12/01 06:52:09;;;;;;;56.80;28.97;;;2.60;99.90;;;;;;4913467;29;20303;-72
2022/12/01 06:54:38;;;;;;;55.97;29.23;;;2.50;99.90;;;;;;4913548;29;20311;-72
2022/12/01 06:57:05;;;;;;;54.23;29.43;;;2.60;99.90;;;;;;4914021;29;20235;-73
2022/12/01 06:59:32;;;;;;;53.73;27.13;;;2.60;99.90;;;;;;4913521;29;20238;-72
2022/12/01 07:01:59;;;;;;;57.83;29.50;;;2.60;99.90;;;;;;4913734;29;20232;-72
2022/12/01 07:04:25;;;;;;;48.70;27.27;;;2.60;99.90;;;;;;4913411;29;20299;-72
2022/12/01 07:06:52;;;;;;;51.10;27.70;;;2.60;99.90;;;;;;4913160;29;20327;-72
2022/12/01 07:09:19;;;;;;;51.93;28.37;;;2.60;99.90;;;;;;4912288;29;20339;-72
2022/12/01 07:11:47;;;;;;;47.40;26.70;;;2.60;99.90;;;;;;4913493;29;20236;-72
2022/12/01 07:14:22;;;;;;;49.00;27.27;;;2.60;99.90;;;;;;4913399;29;20312;-72
2022/12/01 07:16:48;;;;;;;48.30;28.17;;;2.60;99.90;;;;;;4913286;29;20287;-73
2022/12/01 07:19:15;;;;;;;51.50;27.10;;;2.50;99.90;;;;;;4912982;29;20905;-72
2022/12/01 07:21:42;;;;;;;46.73;27.27;;;2.50;99.90;;;;;;4913128;29;20679;-72
2022/12/01 07:24:11;;;;;;;49.60;27.67;;;2.50;99.90;;;;;;4913116;29;20250;-72
2022/12/01 07:26:39;;;;;;;48.73;26.13;;;2.60;99.90;;;;;;4913212;29;20295;-73
2022/12/01 07:29:07;;;;;;;45.10;26.93;;;2.60;99.90;;;;;;4913051;29;20673;-72
2022/12/01 07:31:34;;;;;;;49.23;27.73;;;2.60;99.90;;;;;;4913419;29;20223;-72
2022/12/01 07:34:01;;;;;;;50.83;27.23;;;2.60;99.90;;;;;;4913196;29;20224;-72
2022/12/01 07:36:28;;;;;;;46.30;26.83;;;2.60;99.90;;;;;;4913424;29;20909;-72
2022/12/01 07:38:55;;;;;;;44.63;26.60;;;2.60;99.90;;;;;;4912803;29;20217;-72
2022/12/01 07:41:22;;;;;;;48.40;27.80;;;2.60;99.90;;;;;;4912986;29;20351;-72
2022/12/01 07:43:49;;;;;;;47.47;27.37;;;2.60;99.90;;;;;;4912816;29;20764;-72
2022/12/01 07:46:18;;;;;;;48.57;27.00;;;2.60;99.90;;;;;;4912862;29;20219;-73
2022/12/01 07:48:45;;;;;;;51.87;28.53;;;2.60;99.90;;;;;;4912525;29;20623;-72
2022/12/01 07:51:16;;;;;;;49.77;27.73;;;2.60;99.90;;;;;;4913104;29;20311;-72
2022/12/01 07:53:43;;;;;;;44.90;26.87;;;2.60;99.90;;;;;;4913088;29;20217;-73
2022/12/01 07:56:10;;;;;;;44.77;26.70;;;2.70;99.90;;;;;;4912365;29;20672;-72
2022/12/01 07:58:38;;;;;;;45.57;27.63;;;2.70;99.90;;;;;;4912567;29;20221;-72
2022/12/01 08:01:09;;;;;;;45.77;26.77;;;2.80;99.90;;;;;;4912500;29;20721;-72
2022/12/01 08:03:38;;;;;;;48.80;27.53;;;2.80;99.90;;;;;;4912460;29;20219;-74
2022/12/01 08:06:06;;;;;;;49.20;28.30;;;2.90;99.90;;;;;;4912675;29;20213;-72
2022/12/01 08:08:34;;;;;;;46.47;26.90;;;2.90;99.90;;;;;;4912320;29;20332;-72
2022/12/01 08:11:02;;;;;;;49.67;28.50;;;2.90;99.90;;;;;;4911999;29;20312;-72
2022/12/01 08:13:30;;;;;;;49.73;28.40;;;2.90;99.90;;;;;;4912534;29;20304;-72
2022/12/01 08:15:57;;;;;;;53.43;29.57;;;2.90;99.90;;;;;;4912453;29;20243;-72
2022/12/01 08:18:24;;;;;;;49.70;28.70;;;2.90;99.90;;;;;;4912635;29;20299;-72
2022/12/01 08:20:56;;;;;;;52.87;29.70;;;2.90;99.90;;;;;;4912008;29;20405;-72
2022/12/01 08:23:23;;;;;;;54.27;31.80;;;2.90;99.90;;;;;;4912495;29;20199;-72
2022/12/01 08:25:51;;;;;;;58.07;30.73;;;2.80;99.90;;;;;;4912114;29;20217;-72
2022/12/01 08:28:18;;;;;;;52.23;28.23;;;2.80;99.90;;;;;;4912631;29;20353;-73
2022/12/01 08:30:45;;;;;;;61.33;32.57;;;2.80;99.90;;;;;;4912467;29;20215;-72
2022/12/01 08:33:12;;;;;;;53.10;30.57;;;2.80;99.90;;;;;;4912337;29;20264;-72
2022/12/01 08:35:38;;;;;;;53.17;31.30;;;2.80;99.90;;;;;;4911869;29;20301;-72
2022/12/01 08:38:07;;;;;;;55.07;31.83;;;2.80;99.90;;;;;;4912080;29;20217;-72
2022/12/01 08:40:34;;;;;;;69.90;33.00;;;2.80;99.90;;;;;;4911640;29;20260;-72
2022/12/01 08:43:00;;;;;;;59.77;32.87;;;2.80;99.90;;;;;;4912188;29;20248;-72
2022/12/01 08:45:27;;;;;;;61.57;33.60;;;2.80;99.90;;;;;;4911561;29;20256;-72
2022/12/01 08:47:57;;;;;;;60.67;31.67;;;2.80;99.90;;;;;;4911660;29;20296;-72
2022/12/01 08:50:25;;;;;;;61.43;34.23;;;2.80;99.90;;;;;;4912128;29;20215;-72
2022/12/01 08:52:52;;;;;;;66.33;31.83;;;2.80;99.90;;;;;;4911879;29;20212;-72
2022/12/01 08:55:22;;;;;;;65.00;34.03;;;2.80;99.90;;;;;;4911398;29;20213;-73
2022/12/01 08:57:48;;;;;;;70.93;35.40;;;2.80;99.90;;;;;;4911633;29;20830;-73
2022/12/01 09:00:16;;;;;;;63.33;33.73;;;2.80;99.90;;;;;;4911823;29;20331;-73
2022/12/01 09:02:43;;;;;;;67.87;35.30;;;2.80;99.90;;;;;;4911798;29;20299;-73
2022/12/01 09:05:10;;;;;;;67.70;35.13;;;2.80;99.90;;;;;;4911535;29;20573;-72
2022/12/01 09:07:37;;;;;;;70.07;36.47;;;2.80;99.90;;;;;;4911694;29;20661;-72
2022/12/01 09:10:04;;;;;;;75.20;37.40;;;2.80;99.90;;;;;;4910582;29;20863;-72
2022/12/01 09:12:33;;;;;;;71.80;36.60;;;2.80;99.90;;;;;;4911787;29;20303;-71
2022/12/01 09:15:00;;;;;;;71.57;37.47;;;2.80;99.90;;;;;;4911070;29;21169;-73
2022/12/01 09:17:28;;;;;;;72.80;37.20;;;2.90;99.90;;;;;;4911786;29;20263;-72
2022/12/01 09:19:54;;;;;;;71.80;37.43;;;2.90;99.90;;;;;;4911633;29;20308;-72
2022/12/01 09:22:21;;;;;;;77.97;36.97;;;2.90;99.90;;;;;;4911585;29;20751;-72
2022/12/01 09:24:48;;;;;;;74.67;37.73;;;2.90;99.90;;;;;;4911275;29;20746;-73
2022/12/01 09:27:15;;;;;;;84.30;39.07;;;2.90;99.90;;;;;;4911302;29;20623;-72
2022/12/01 09:29:43;;;;;;;72.13;37.10;;;2.80;99.90;;;;;;4911475;29;20661;-72
2022/12/01 09:32:10;;;;;;;66.83;34.03;;;2.80;99.90;;;;;;4915421;29;20204;-72
2022/12/01 09:34:37;;;;;;;69.53;34.70;;;2.80;99.90;;;;;;4917716;29;20706;-72
2022/12/01 09:37:05;;;;;;;68.10;35.63;;;2.80;99.90;;;;;;4917382;29;20228;-72
2022/12/01 09:39:32;;;;;;;67.67;35.27;;;2.80;99.90;;;;;;4917159;29;20273;-71
2022/12/01 09:42:04;;;;;;;66.20;34.93;;;2.80;99.90;;;;;;4898548;29;20748;-72
2022/12/01 09:44:38;;;;;;;72.27;35.23;;;2.80;99.90;;;;;;4899053;29;20197;-71
2022/12/01 09:47:17;;;;;;;67.00;34.37;;;2.80;99.90;;;;;;4901345;29;20275;-72
2022/12/01 09:49:53;;;;;;;70.43;34.93;;;2.80;99.90;;;;;;4917881;29;20261;-72
2022/12/01 09:52:21;;;;;;;69.30;35.60;;;2.80;99.90;;;;;;4917877;29;20219;-71
2022/12/01 09:54:49;;;;;;;72.90;36.67;;;2.80;99.90;;;;;;4917279;29;20303;-72
2022/12/01 09:57:24;;;;;;;75.37;36.83;;;2.80;99.90;;;;;;4917272;29;21021;-72
2022/12/01 09:59:52;;;;;;;74.17;36.13;;;2.80;99.90;;;;;;4917303;29;20317;-71
2022/12/01 10:02:31;;;;;;;71.80;36.43;;;2.90;99.90;;;;;;4917430;29;20307;-72
2022/12/01 10:05:01;;;;;;;68.87;36.27;;;2.90;99.90;;;;;;4917254;29;21073;-73
2022/12/01 10:07:32;;;;;;;68.17;35.13;;;2.90;99.90;;;;;;4917102;29;20608;-72
2022/12/01 10:10:01;;;;;;;73.10;36.67;;;2.90;99.90;;;;;;4917010;29;20201;-72
2022/12/01 10:12:32;;;;;;;77.73;38.20;;;2.90;99.90;;;;;;4917277;29;20304;-72
2022/12/01 10:15:10;;;;;;;74.20;36.93;;;2.90;99.90;;;;;;4917098;29;20289;-72
2022/12/01 10:17:45;;;;;;;76.03;39.00;;;2.90;99.90;;;;;;4917298;29;20834;-72
2022/12/01 10:20:19;;;;;;;82.70;38.83;;;2.90;99.90;;;;;;4916981;29;20256;-72
2022/12/01 10:22:58;;;;;;;79.07;39.20;;;2.90;99.90;;;;;;4916733;29;20731;-71
2022/12/01 10:25:27;;;;;;;85.10;41.43;;;2.90;99.90;;;;;;4916829;29;20295;-72
2022/12/01 10:28:29;;;;;;;79.90;40.27;;;2.90;99.90;;;;;;4916775;29;20744;-72
2022/12/01 10:31:04;;;;;;;79.07;39.00;;;2.90;99.90;;;;;;4916885;29;20279;-71
2022/12/01 10:33:36;;;;;;;79.63;39.03;;;2.90;99.90;;;;;;4917508;29;20228;-71
2022/12/01 10:36:02;;;;;;;81.10;40.10;;;2.90;99.90;;;;;;4916595;29;20233;-72
2022/12/01 10:38:33;;;;;;;82.63;40.87;;;2.90;99.90;;;;;;4916909;29;20315;-72
2022/12/01 10:41:02;;;;;;;83.60;40.07;;;3.00;99.90;;;;;;4916144;29;20260;-71
2022/12/01 10:43:35;;;;;;;76.10;38.57;;;3.00;99.90;;;;;;4914994;29;20771;-72
2022/12/01 10:46:14;;;;;;;77.80;39.10;;;2.90;99.90;;;;;;4913941;29;20205;-71
2022/12/01 10:48:54;;;;;;;76.97;39.27;;;2.90;99.90;;;;;;4914212;29;20248;-72
2022/12/01 10:51:22;;;;;;;80.80;38.97;;;2.90;99.90;;;;;;4913923;29;20288;-72
2022/12/01 10:53:50;;;;;;;77.80;38.20;;;2.90;99.90;;;;;;4913684;29;20221;-72
2022/12/01 10:56:19;;;;;;;74.87;37.60;;;2.90;99.90;;;;;;4913340;29;20212;-72
2022/12/01 10:58:49;;;;;;;71.13;36.77;;;2.90;99.90;;;;;;4913621;29;20212;-72
2022/12/01 11:01:20;;;;;;;69.70;35.90;;;2.90;99.90;;;;;;4913746;29;20232;-71
2022/12/01 11:03:54;;;;;;;65.30;36.20;;;2.90;99.90;;;;;;4913530;29;20324;-72
2022/12/01 11:06:24;;;;;;;65.40;35.27;;;2.90;99.90;;;;;;4913588;29;20827;-73
2022/12/01 11:08:57;;;;;;;65.67;35.73;;;3.00;99.90;;;;;;4901387;29;20279;-71
2022/12/01 11:11:28;;;;;;;64.40;34.50;;;3.00;99.90;;;;;;4894440;29;20240;-71
2022/12/01 11:13:56;;;;;;;62.43;33.10;;;3.00;99.90;;;;;;4894541;29;20692;-72
2022/12/01 11:16:41;;;;;;;59.33;33.00;;;3.00;99.90;;;;;;4894281;29;20300;-72
2022/12/01 11:19:31;;;;;;;55.43;31.50;;;3.00;99.90;;;;;;4893992;29;20216;-72
2022/12/01 11:22:00;;;;;;;58.00;31.80;;;3.00;99.90;;;;;;4906169;29;20592;-72
2022/12/01 11:24:41;;;;;;;58.57;32.10;;;3.00;99.90;;;;;;4913230;29;20304;-72
2022/12/01 11:27:16;;;;;;;56.73;32.07;;;3.00;99.90;;;;;;4913406;29;20224;-71
2022/12/01 11:29:44;;;;;;;58.03;32.03;;;3.00;99.90;;;;;;4913037;29;20656;-72
2022/12/01 11:32:20;;;;;;;56.60;31.40;;;3.00;99.90;;;;;;4913046;29;20209;-72
2022/12/01 11:34:55;;;;;;;54.63;30.83;;;2.90;99.90;;;;;;4913057;29;20320;-72
2022/12/01 11:37:25;;;;;;;50.60;31.10;;;3.00;99.90;;;;;;4912940;29;20674;-72
2022/12/01 11:39:53;;;;;;;56.23;31.73;;;3.00;99.90;;;;;;4912815;29;20205;-71
2022/12/01 11:42:24;;;;;;;50.40;29.33;;;3.00;99.90;;;;;;4912858;29;20343;-71
2022/12/01 11:44:53;;;;;;;52.87;31.37;;;3.00;99.90;;;;;;4912587;29;20300;-71
2022/12/01 11:47:22;;;;;;;54.17;31.70;;;3.00;99.90;;;;;;4912602;29;20292;-72
2022/12/01 11:49:56;;;;;;;52.30;31.13;;;3.00;99.90;;;;;;4912363;29;20895;-71
2022/12/01 11:52:27;;;;;;;52.90;30.60;;;3.00;99.90;;;;;;4912686;29;20205;-72
2022/12/01 11:54:59;;;;;;;52.20;29.70;;;3.00;99.90;;;;;;4911633;29;20201;-71
2022/12/01 11:57:27;;;;;;;54.37;30.93;;;3.00;99.90;;;;;;4912442;29;20211;-71
2022/12/01 11:59:54;;;;;;;50.20;31.33;;;3.00;99.90;;;;;;4912543;29;20304;-71
2022/12/01 12:02:34;;;;;;;52.57;30.53;;;3.00;99.90;;;;;;4912598;29;20272;-72
2022/12/01 12:05:44;;;;;;;54.17;32.10;;;3.10;99.90;;;;;;4912335;29;20205;-72
2022/12/01 12:08:20;;;;;;;52.33;29.83;;;3.10;99.90;;;;;;4902925;29;20287;-71
2022/12/01 12:10:55;;;;;;;54.43;30.27;;;3.10;99.90;;;;;;4911996;29;20295;-73
2022/12/01 12:13:41;;;;;;;53.03;30.50;;;3.10;99.90;;;;;;4912448;29;20299;-71
2022/12/01 12:16:15;;;;;;;51.07;31.23;;;3.10;99.90;;;;;;4911942;29;20839;-71
2022/12/01 12:19:02;;;;;;;51.20;30.60;;;3.00;99.90;;;;;;4911859;29;20220;-72
2022/12/01 12:21:37;;;;;;;48.33;30.27;;;3.00;99.90;;;;;;4910135;29;20233;-72
2022/12/01 12:24:33;;;;;;;56.43;32.10;;;3.00;99.90;;;;;;4893255;29;20300;-71
2022/12/01 12:27:08;;;;;;;53.87;31.47;;;3.00;99.90;;;;;;4893258;29;20287;-72
2022/12/01 12:29:58;;;;;;;53.83;30.40;;;3.00;99.90;;;;;;4904672;29;20337;-72
2022/12/01 12:33:03;;;;;;;51.07;30.23;;;3.00;99.90;;;;;;4912101;29;20236;-71
2022/12/01 12:35:39;;;;;;;53.83;31.30;;;3.00;99.90;;;;;;4894804;29;20332;-72
2022/12/01 12:38:33;;;;;;;50.67;30.70;;;3.10;99.90;;;;;;4911967;29;20288;-72
2022/12/01 12:41:11;;;;;;;56.57;31.30;;;3.10;99.90;;;;;;4911393;29;20244;-72
2022/12/01 12:43:48;;;;;;;49.90;30.13;;;3.10;99.90;;;;;;4911650;29;20287;-71
2022/12/01 12:46:22;;;;;;;53.33;31.70;;;3.10;99.90;;;;;;4911749;29;20247;-72
2022/12/01 12:49:05;;;;;;;47.83;29.70;;;3.10;99.90;;;;;;4911578;29;20197;-71
2022/12/01 12:51:35;;;;;;;53.63;30.23;;;3.10;99.90;;;;;;4893562;29;20245;-71
2022/12/01 12:54:18;;;;;;;49.67;29.87;;;3.00;99.90;;;;;;4892726;29;20205;-71
2022/12/01 12:56:48;;;;;;;51.23;30.20;;;3.10;99.90;;;;;;4909927;29;20328;-71
2022/12/01 12:59:20;;;;;;;48.40;29.20;;;3.00;99.90;;;;;;4911252;29;20695;-72